Time;durP1;ratioP1;P1;durP2;ratioP2;P2;SDS_P1;SDS_P2;PMS_P1;PMS_P2;Temp;Humidity;BMP_temperature;BMP_pressure;BME280_temperature;BME280_humidity;BME280_pressure;Samples;Min_cycle;Max_cycle;Signal;HPM_P1;HPM_P2
2023/09/02 00:01:44;;;;;;;0.40;0.20;;;;;;;16.24;100.00;100374.78;5042219;28;20425;-50
2023/09/02 00:04:10;;;;;;;0.40;0.20;;;;;;;16.16;100.00;100367.13;5038567;28;20426;-51
2023/09/02 00:06:37;;;;;;;0.40;0.20;;;;;;;16.19;100.00;100376.84;5041717;28;20779;-51
2023/09/02 00:09:03;;;;;;;0.40;0.20;;;;;;;16.15;100.00;100367.19;5045365;28;20534;-50
2023/09/02 00:11:30;;;;;;;0.40;0.20;;;;;;;16.11;100.00;100377.22;5042619;28;20447;-50
2023/09/02 00:13:56;;;;;;;0.40;0.20;;;;;;;16.28;100.00;100371.00;5038304;28;20447;-50
2023/09/02 00:16:22;;;;;;;0.40;0.20;;;;;;;16.00;100.00;100374.19;5041352;28;20452;-50
2023/09/02 00:18:49;;;;;;;0.40;0.20;;;;;;;16.14;100.00;100377.06;5045418;28;20475;-51
2023/09/02 00:21:15;;;;;;;0.40;0.20;;;;;;;16.01;100.00;100375.94;5042712;28;20549;-51
2023/09/02 00:23:45;;;;;;;0.40;0.20;;;;;;;15.99;100.00;100369.78;5038324;28;20573;-50
2023/09/02 00:26:12;;;;;;;0.40;0.20;;;;;;;16.03;100.00;100367.81;5040943;28;20956;-50
2023/09/02 00:28:38;;;;;;;0.40;0.20;;;;;;;16.06;100.00;100373.91;5045517;28;20473;-51
2023/09/02 00:31:05;;;;;;;0.40;0.20;;;;;;;16.07;100.00;100375.66;5043163;28;20543;-50
2023/09/02 00:33:36;;;;;;;0.40;0.20;;;;;;;15.81;100.00;100373.38;5038157;28;20450;-49
2023/09/02 00:36:02;;;;;;;0.40;0.20;;;;;;;15.78;100.00;100368.19;5035245;28;20882;-51
2023/09/02 00:38:29;;;;;;;0.40;0.20;;;;;;;15.84;100.00;100366.03;5045435;28;20499;-51
2023/09/02 00:41:02;;;;;;;0.40;0.20;;;;;;;15.73;100.00;100372.88;5044307;28;20451;-50
2023/09/02 00:43:29;;;;;;;0.40;0.20;;;;;;;15.75;100.00;100373.66;5025640;28;20461;-50
2023/09/02 00:45:55;;;;;;;0.40;0.20;;;;;;;15.76;100.00;100370.03;5037991;28;20454;-50
2023/09/02 00:48:22;;;;;;;0.40;0.20;;;;;;;15.75;100.00;100370.97;5044516;28;20510;-50
2023/09/02 00:50:49;;;;;;;0.40;0.20;;;;;;;15.77;100.00;100370.00;5044810;28;20507;-50
2023/09/02 00:53:18;;;;;;;0.40;0.20;;;;;;;15.88;100.00;100385.53;5039140;28;20447;-50
2023/09/02 00:55:46;;;;;;;4.37;4.07;;;;;;;15.62;100.00;100382.31;5037042;28;20466;-50
2023/09/02 00:58:13;;;;;;;0.40;0.20;;;;;;;15.52;100.00;100377.44;5039479;28;20550;-50
2023/09/02 01:00:40;;;;;;;0.40;0.20;;;;;;;15.60;100.00;100386.00;5037976;28;20534;-50
2023/09/02 01:03:07;;;;;;;0.40;0.20;;;;;;;15.68;100.00;100395.41;5043335;28;20977;-50
2023/09/02 01:05:34;;;;;;;0.40;0.20;;;;;;;15.65;100.00;100392.88;5046971;28;20432;-50
2023/09/02 01:08:03;;;;;;;0.40;0.20;;;;;;;15.64;100.00;100396.50;5043700;28;20491;-50
2023/09/02 01:10:34;;;;;;;0.40;0.20;;;;;;;15.64;100.00;100395.66;5041581;28;20461;-49
2023/09/02 01:13:02;;;;;;;0.40;0.20;;;;;;;15.57;100.00;100404.88;5045419;28;20539;-50
2023/09/02 01:15:28;;;;;;;0.40;0.20;;;;;;;15.47;100.00;100408.91;5048479;28;20538;-50
2023/09/02 01:17:55;;;;;;;0.40;0.20;;;;;;;15.39;100.00;100404.78;5044826;28;21018;-50
2023/09/02 01:20:27;;;;;;;0.40;0.20;;;;;;;15.36;100.00;100407.63;5041523;28;20497;-50
2023/09/02 01:23:03;;;;;;;0.97;0.90;;;;;;;15.36;100.00;100401.41;5043745;28;21000;-50
2023/09/02 01:26:02;;;;;;;1.47;1.47;;;;;;;15.33;100.00;100402.38;5048103;28;20542;-50
2023/09/02 01:28:34;;;;;;;0.40;0.20;;;;;;;15.19;100.00;100410.19;5035957;28;20842;-49
2023/09/02 01:31:05;;;;;;;0.40;0.20;;;;;;;15.24;100.00;100413.53;5045917;28;20538;-50
2023/09/02 01:33:32;;;;;;;0.40;0.20;;;;;;;15.36;100.00;100425.50;5041269;28;20442;-50
2023/09/02 01:36:00;;;;;;;0.40;0.20;;;;;;;15.28;100.00;100424.97;5038492;28;20454;-50
2023/09/02 01:38:30;;;;;;;0.40;0.20;;;;;;;15.27;100.00;100420.56;5046766;28;20467;-50
2023/09/02 01:40:59;;;;;;;0.40;0.20;;;;;;;15.18;100.00;100420.97;5047367;28;20545;-49
2023/09/02 01:43:29;;;;;;;0.40;0.20;;;;;;;15.09;100.00;100416.91;5041095;28;20494;-49
2023/09/02 01:45:57;;;;;;;0.40;0.20;;;;;;;15.07;100.00;100416.97;5041181;28;20455;-49
2023/09/02 01:48:26;;;;;;;0.40;0.20;;;;;;;15.11;100.00;100423.06;5047115;28;20884;-50
2023/09/02 01:50:54;;;;;;;0.40;0.20;;;;;;;15.09;100.00;100427.63;5047841;28;20426;-50
2023/09/02 01:53:21;;;;;;;0.40;0.20;;;;;;;14.98;100.00;100425.44;5042811;28;20529;-50
2023/09/02 01:55:48;;;;;;;0.40;0.20;;;;;;;14.97;100.00;100426.38;5039368;28;20456;-50
2023/09/02 01:58:17;;;;;;;0.40;0.20;;;;;;;15.01;100.00;100422.59;5042823;28;20441;-50
2023/09/02 02:00:43;;;;;;;0.40;0.20;;;;;;;14.85;100.00;100418.88;5040709;28;20986;-50
2023/09/02 02:03:19;;;;;;;0.40;0.20;;;;;;;14.92;100.00;100425.69;5045128;28;20495;-50
2023/09/02 02:05:52;;;;;;;0.40;0.20;;;;;;;14.98;100.00;100422.75;5047437;28;20451;-50
2023/09/02 02:08:51;;;;;;;0.40;0.20;;;;;;;15.09;100.00;100419.59;5045657;28;20487;-50
2023/09/02 02:11:19;;;;;;;0.40;0.20;;;;;;;14.95;100.00;100430.91;5045209;28;20448;-49
2023/09/02 02:13:49;;;;;;;0.40;0.20;;;;;;;15.07;100.00;100426.81;5047174;28;20542;-49
2023/09/02 02:16:15;;;;;;;0.40;0.20;;;;;;;14.87;100.00;100433.06;5043493;28;20485;-50
2023/09/02 02:18:42;;;;;;;0.40;0.20;;;;;;;14.83;100.00;100434.13;5040491;28;20524;-50
2023/09/02 02:21:08;;;;;;;0.40;0.20;;;;;;;14.97;100.00;100437.06;5044022;28;20452;-49
2023/09/02 02:23:35;;;;;;;0.40;0.20;;;;;;;14.81;100.00;100433.34;5029963;28;20487;-49
2023/09/02 02:26:03;;;;;;;0.40;0.20;;;;;;;15.11;100.00;100436.47;5043787;28;20443;-49
2023/09/02 02:28:30;;;;;;;0.40;0.20;;;;;;;15.14;100.00;100439.00;5040107;28;20482;-49
2023/09/02 02:30:58;;;;;;;0.40;0.20;;;;;;;15.06;100.00;100441.13;5043064;28;20448;-50
2023/09/02 02:33:25;;;;;;;0.40;0.20;;;;;;;14.91;100.00;100444.50;5046864;28;20546;-49
2023/09/02 02:35:51;;;;;;;0.40;0.20;;;;;;;15.00;100.00;100446.78;5033775;28;20527;-50
2023/09/02 02:38:18;;;;;;;0.40;0.20;;;;;;;14.76;100.00;100438.88;5046671;28;20944;-49
2023/09/02 02:40:44;;;;;;;0.40;0.20;;;;;;;14.93;100.00;100440.81;5044276;28;20451;-49
2023/09/02 02:43:11;;;;;;;0.40;0.20;;;;;;;14.96;100.00;100437.16;5039961;28;20465;-48
2023/09/02 02:45:37;;;;;;;0.40;0.20;;;;;;;14.98;100.00;100429.91;5043208;28;20543;-50
2023/09/02 02:48:04;;;;;;;0.40;0.20;;;;;;;15.03;100.00;100420.72;5046686;28;20514;-50
2023/09/02 02:50:34;;;;;;;0.40;0.20;;;;;;;15.08;100.00;100431.25;5044407;28;20508;-49
2023/09/02 02:53:02;;;;;;;0.40;0.20;;;;;;;15.22;100.00;100414.56;5039544;28;20443;-49
2023/09/02 02:55:28;;;;;;;0.40;0.20;;;;;;;15.33;100.00;100418.44;5041555;28;20458;-50
2023/09/02 02:57:56;;;;;;;0.40;0.20;;;;;;;15.20;100.00;100416.41;5038221;28;20451;-50
2023/09/02 03:00:23;;;;;;;0.40;0.20;;;;;;;15.26;100.00;100434.91;5040667;28;20792;-50
2023/09/02 03:02:51;;;;;;;0.40;0.20;;;;;;;15.36;100.00;100438.91;5046331;28;21068;-49
2023/09/02 03:05:20;;;;;;;0.40;0.20;;;;;;;15.39;100.00;100439.63;5045799;28;20426;-50
2023/09/02 03:07:47;;;;;;;0.40;0.20;;;;;;;15.61;100.00;100436.81;5026453;28;20561;-50
2023/09/02 03:10:14;;;;;;;0.40;0.20;;;;;;;15.43;100.00;100443.03;5039424;28;20483;-49
2023/09/02 03:12:40;;;;;;;0.40;0.20;;;;;;;15.40;100.00;100441.34;5045828;28;20448;-49
2023/09/02 03:15:07;;;;;;;0.40;0.20;;;;;;;15.27;100.00;100441.97;5045893;28;20425;-50
2023/09/02 03:17:33;;;;;;;0.40;0.20;;;;;;;15.26;100.00;100448.28;5039793;28;20548;-49
2023/09/02 03:20:00;;;;;;;0.40;0.20;;;;;;;15.28;100.00;100449.94;5038902;28;20872;-49
2023/09/02 03:22:28;;;;;;;0.40;0.20;;;;;;;15.42;100.00;100454.69;5045627;28;20432;-50
2023/09/02 03:24:55;;;;;;;0.40;0.20;;;;;;;15.39;100.00;100455.69;5045954;28;20449;-50
2023/09/02 03:27:21;;;;;;;0.40;0.20;;;;;;;15.21;100.00;100458.31;5039567;28;20928;-49
2023/09/02 03:29:48;;;;;;;0.40;0.20;;;;;;;15.22;100.00;100455.59;5038958;28;20452;-49
2023/09/02 03:32:15;;;;;;;0.40;0.20;;;;;;;15.19;100.00;100457.53;5044809;28;20451;-49
2023/09/02 03:34:41;;;;;;;0.40;0.20;;;;;;;15.25;100.00;100468.84;5041189;28;20450;-49
2023/09/02 03:37:08;;;;;;;0.40;0.20;;;;;;;15.20;100.00;100470.84;5034502;28;20458;-49
2023/09/02 03:39:35;;;;;;;0.40;0.20;;;;;;;15.26;100.00;100472.38;5045418;28;20459;-49
2023/09/02 03:42:01;;;;;;;0.40;0.20;;;;;;;15.14;100.00;100481.84;5040482;28;20533;-50
2023/09/02 03:44:28;;;;;;;0.40;0.20;;;;;;;15.12;100.00;100478.34;5038700;28;20498;-49
2023/09/02 03:46:54;;;;;;;0.40;0.20;;;;;;;15.17;100.00;100484.38;5044080;28;20458;-49
2023/09/02 03:49:20;;;;;;;0.40;0.20;;;;;;;15.18;100.00;100479.88;5045595;28;20471;-49
2023/09/02 03:51:47;;;;;;;0.40;0.20;;;;;;;15.15;100.00;100470.19;5040587;28;20801;-49
2023/09/02 03:54:13;;;;;;;0.40;0.20;;;;;;;15.27;100.00;100469.63;5034159;28;20531;-49
2023/09/02 03:56:41;;;;;;;0.40;0.20;;;;;;;15.26;100.00;100478.63;5035084;28;20483;-50
2023/09/02 03:59:08;;;;;;;0.40;0.20;;;;;;;15.27;100.00;100472.31;5045423;28;20467;-50
2023/09/02 04:01:34;;;;;;;0.40;0.20;;;;;;;15.31;100.00;100476.59;5040420;28;20457;-49
2023/09/02 04:04:01;;;;;;;0.40;0.20;;;;;;;15.35;100.00;100471.94;5038497;28;20602;-49
2023/09/02 04:06:27;;;;;;;0.40;0.20;;;;;;;15.44;100.00;100476.03;5043895;28;20476;-50
2023/09/02 04:08:54;;;;;;;1.63;1.53;;;;;;;15.40;100.00;100480.66;5045473;28;20478;-50
2023/09/02 04:11:22;;;;;;;0.40;0.20;;;;;;;15.54;100.00;100490.75;5040390;28;20999;-50
2023/09/02 04:13:48;;;;;;;0.40;0.20;;;;;;;15.51;100.00;100485.53;5038636;28;20422;-50
2023/09/02 04:16:15;;;;;;;0.40;0.20;;;;;;;15.54;100.00;100483.59;5043305;28;20422;-49
2023/09/02 04:18:41;;;;;;;0.40;0.20;;;;;;;15.54;100.00;100483.59;5045488;28;20471;-50
2023/09/02 04:21:11;;;;;;;0.40;0.20;;;;;;;15.52;100.00;100487.28;5041103;28;20588;-49
2023/09/02 04:23:37;;;;;;;0.40;0.20;;;;;;;15.54;100.00;100477.38;5038344;28;20465;-49
2023/09/02 04:26:04;;;;;;;0.40;0.20;;;;;;;15.59;100.00;100480.69;5042582;28;20929;-49
2023/09/02 04:28:30;;;;;;;0.40;0.20;;;;;;;15.68;100.00;100478.50;5044995;28;20481;-49
2023/09/02 04:30:57;;;;;;;0.40;0.20;;;;;;;15.67;100.00;100483.94;5041191;28;20504;-49
2023/09/02 04:33:24;;;;;;;0.40;0.20;;;;;;;15.53;100.00;100487.22;5038480;28;20454;-49
2023/09/02 04:35:51;;;;;;;0.40;0.20;;;;;;;15.49;100.00;100474.91;5036989;28;20543;-49
2023/09/02 04:38:17;;;;;;;0.40;0.20;;;;;;;15.45;100.00;100470.59;5045191;28;20472;-49
2023/09/02 04:40:44;;;;;;;0.40;0.20;;;;;;;15.45;100.00;100470.59;5045372;28;20449;-50
2023/09/02 04:43:13;;;;;;;0.40;0.20;;;;;;;15.50;100.00;100479.31;5042362;28;20490;-49
2023/09/02 04:45:41;;;;;;;0.40;0.20;;;;;;;15.49;100.00;100482.94;5044304;28;20426;-49
2023/09/02 04:48:09;;;;;;;0.40;0.20;;;;;;;15.58;100.00;100482.50;5048639;28;20968;-49
2023/09/02 04:50:36;;;;;;;0.40;0.20;;;;;;;15.54;100.00;100490.75;5047495;28;20457;-49
2023/09/02 04:53:03;;;;;;;0.40;0.20;;;;;;;15.55;100.00;100485.31;5042327;28;20417;-49
2023/09/02 04:55:30;;;;;;;0.40;0.20;;;;;;;15.56;100.00;100487.06;5043159;28;20447;-49
2023/09/02 04:57:57;;;;;;;0.40;0.20;;;;;;;15.60;100.00;100499.41;5040750;28;20470;-50
2023/09/02 05:00:25;;;;;;;0.40;0.20;;;;;;;15.56;100.00;100497.78;5042997;28;20534;-50
2023/09/02 05:02:52;;;;;;;0.63;0.63;;;;;;;15.53;100.00;100497.06;5048494;28;21030;-50
2023/09/02 05:05:19;;;;;;;0.40;0.20;;;;;;;15.56;100.00;100489.75;5048331;28;20462;-49
2023/09/02 05:07:46;;;;;;;0.40;0.20;;;;;;;15.64;100.00;100501.03;5041424;28;20486;-49
2023/09/02 05:10:14;;;;;;;0.40;0.20;;;;;;;15.59;100.00;100491.41;5041958;28;20479;-50
2023/09/02 05:12:41;;;;;;;0.40;0.20;;;;;;;15.54;100.00;100505.03;5041767;28;20455;-49
2023/09/02 05:15:08;;;;;;;0.40;0.20;;;;;;;15.51;100.00;100504.31;5041794;28;20450;-49
2023/09/02 05:17:35;;;;;;;0.40;0.20;;;;;;;15.52;100.00;100504.22;5048053;28;20499;-49
2023/09/02 05:20:03;;;;;;;0.40;0.20;;;;;;;15.48;100.00;100505.28;5048246;28;20451;-49
2023/09/02 05:22:30;;;;;;;0.40;0.20;;;;;;;15.53;100.00;100503.28;5036698;28;20563;-50
2023/09/02 05:24:57;;;;;;;0.40;0.20;;;;;;;15.52;100.00;100509.59;5029167;28;20491;-49
2023/09/02 05:27:23;;;;;;;0.40;0.20;;;;;;;15.65;100.00;100517.97;5047720;28;20458;-49
2023/09/02 05:29:50;;;;;;;0.40;0.20;;;;;;;15.65;100.00;100510.81;5048053;28;20532;-50
2023/09/02 05:32:17;;;;;;;0.40;0.20;;;;;;;15.77;100.00;100513.88;5042146;28;20446;-50
2023/09/02 05:34:44;;;;;;;0.40;0.20;;;;;;;15.76;100.00;100514.78;5040551;28;20452;-49
2023/09/02 05:37:11;;;;;;;0.40;0.20;;;;;;;15.75;100.00;100521.06;5042924;28;20939;-49
2023/09/02 05:39:37;;;;;;;0.40;0.20;;;;;;;15.72;100.00;100519.41;5040958;28;20433;-49
2023/09/02 05:42:04;;;;;;;0.40;0.20;;;;;;;15.63;100.00;100515.38;5046478;28;20522;-48
2023/09/02 05:44:34;;;;;;;0.40;0.20;;;;;;;15.68;100.00;100518.69;5047655;28;20494;-48
2023/09/02 05:47:01;;;;;;;0.40;0.20;;;;;;;15.70;100.00;100518.63;5043878;28;20517;-48
2023/09/02 05:49:28;;;;;;;0.40;0.20;;;;;;;15.72;100.00;100522.09;5054352;28;20466;-48
2023/09/02 05:51:54;;;;;;;0.40;0.20;;;;;;;15.67;100.00;100516.09;5044659;28;20448;-48
2023/09/02 05:54:20;;;;;;;0.40;0.20;;;;;;;15.69;100.00;100525.78;5036978;28;20932;-48
2023/09/02 05:56:47;;;;;;;0.40;0.20;;;;;;;16.10;100.00;100522.13;5036698;28;20422;-48
2023/09/02 05:59:13;;;;;;;0.40;0.20;;;;;;;16.04;100.00;100515.25;5037403;28;20441;-49
2023/09/02 06:01:40;;;;;;;0.40;0.20;;;;;;;15.94;100.00;100519.28;5054376;28;20453;-48
2023/09/02 06:04:06;;;;;;;0.40;0.20;;;;;;;15.93;100.00;100526.47;5041075;28;20504;-48
2023/09/02 06:06:33;;;;;;;0.40;0.20;;;;;;;15.79;100.00;100528.06;5054161;28;20417;-48
2023/09/02 06:08:59;;;;;;;0.40;0.20;;;;;;;15.74;100.00;100522.88;5053963;28;20483;-48
2023/09/02 06:11:26;;;;;;;0.40;0.20;;;;;;;15.79;100.00;100530.75;5054218;28;20543;-48
2023/09/02 06:13:52;;;;;;;0.40;0.20;;;;;;;15.70;100.00;100532.88;5039417;28;20813;-48
2023/09/02 06:16:23;;;;;;;0.40;0.20;;;;;;;15.68;100.00;100534.78;5054055;28;20425;-48
2023/09/02 06:18:49;;;;;;;0.70;0.70;;;;;;;15.70;100.00;100532.88;5050018;28;20471;-47
2023/09/02 06:21:15;;;;;;;0.40;0.20;;;;;;;15.86;100.00;100542.91;5043128;28;20457;-48
2023/09/02 06:23:43;;;;;;;0.40;0.20;;;;;;;15.89;100.00;100540.06;5041405;28;20488;-48
2023/09/02 06:26:14;;;;;;;0.40;0.20;;;;;;;16.23;100.00;100548.28;5025199;28;20547;-48
2023/09/02 06:28:40;;;;;;;0.40;0.20;;;;;;;16.39;100.00;100537.69;5038231;28;20775;-48
2023/09/02 06:31:08;;;;;;;0.40;0.20;;;;;;;16.55;100.00;100541.34;5042492;28;20456;-48
2023/09/02 06:33:35;;;;;;;0.40;0.20;;;;;;;16.40;100.00;100539.41;5038336;28;20448;-49
2023/09/02 06:36:16;;;;;;;0.40;0.20;;;;;;;16.88;100.00;100546.91;5025009;28;20933;-48
2023/09/02 06:38:43;;;;;;;0.40;0.20;;;;;;;16.97;100.00;100552.72;5028862;28;20819;-48
2023/09/02 06:41:15;;;;;;;0.40;0.20;;;;;;;17.20;100.00;100548.88;5053525;28;20475;-48
2023/09/02 06:43:42;;;;;;;0.40;0.20;;;;;;;16.94;100.00;100552.91;5053896;28;20493;-47
2023/09/02 06:46:10;;;;;;;0.40;0.20;;;;;;;16.80;100.00;100556.28;5053634;28;20948;-48
2023/09/02 06:48:37;;;;;;;0.40;0.20;;;;;;;17.30;100.00;100564.47;5053608;28;20481;-48
2023/09/02 06:51:03;;;;;;;0.40;0.20;;;;;;;16.92;100.00;100561.03;5040184;28;20514;-48
2023/09/02 06:53:29;;;;;;;0.40;0.20;;;;;;;16.92;100.00;100566.41;5049292;28;20501;-49
2023/09/02 06:55:57;;;;;;;0.40;0.20;;;;;;;16.83;100.00;100575.78;5042061;28;20521;-48
2023/09/02 06:58:23;;;;;;;0.40;0.20;;;;;;;16.59;100.00;100571.63;5033304;28;20558;-48
2023/09/02 07:00:50;;;;;;;0.40;0.20;;;;;;;16.77;100.00;100569.88;5049160;28;20863;-49
2023/09/02 07:03:16;;;;;;;0.40;0.20;;;;;;;17.12;100.00;100573.44;5052502;28;20516;-48
2023/09/02 07:05:43;;;;;;;0.40;0.20;;;;;;;17.01;100.00;100586.56;5036765;28;20572;-48
2023/09/02 07:08:10;;;;;;;0.40;0.20;;;;;;;16.86;100.00;100582.84;5032879;28;20454;-48
2023/09/02 07:10:36;;;;;;;0.40;0.20;;;;;;;16.72;100.00;100583.53;5046865;28;20821;-48
2023/09/02 07:13:03;;;;;;;0.40;0.20;;;;;;;16.90;100.00;100584.41;5033430;28;20452;-48
2023/09/02 07:15:29;;;;;;;0.40;0.20;;;;;;;16.91;100.00;100596.03;5043856;28;20447;-49
2023/09/02 07:17:56;;;;;;;0.40;0.20;;;;;;;16.82;100.00;100600.03;5030963;28;20536;-49
2023/09/02 07:20:22;;;;;;;0.40;0.20;;;;;;;17.05;100.00;100596.19;5049547;28;20522;-48
2023/09/02 07:22:49;;;;;;;0.40;0.20;;;;;;;17.44;100.00;100596.84;5037838;28;20456;-48
2023/09/02 07:25:15;;;;;;;0.40;0.20;;;;;;;17.87;100.00;100601.81;5048925;28;20970;-48
2023/09/02 07:27:42;;;;;;;0.40;0.20;;;;;;;17.44;100.00;100609.41;5032450;28;20547;-48
2023/09/02 07:30:08;;;;;;;0.40;0.20;;;;;;;17.46;100.00;100612.91;5042949;28;20430;-48
2023/09/02 07:32:35;;;;;;;0.40;0.20;;;;;;;17.58;100.00;100611.41;5032733;28;20935;-48
2023/09/02 07:35:01;;;;;;;0.40;0.20;;;;;;;17.18;100.00;100608.94;5019161;28;20453;-48
2023/09/02 07:37:28;;;;;;;0.40;0.30;;;;;;;17.26;100.00;100616.59;5034181;28;20934;-48
2023/09/02 07:39:54;;;;;;;0.40;0.20;;;;;;;17.25;100.00;100613.97;5038975;28;20446;-49
2023/09/02 07:42:21;;;;;;;0.40;0.20;;;;;;;17.78;100.00;100608.53;5041552;28;20455;-49
2023/09/02 07:44:47;;;;;;;0.40;0.20;;;;;;;17.82;100.00;100607.44;5035843;28;20685;-48
2023/09/02 07:47:14;;;;;;;0.40;0.20;;;;;;;17.60;100.00;100617.56;5041499;28;20455;-48
2023/09/02 07:49:40;;;;;;;0.40;0.20;;;;;;;17.71;100.00;100612.53;5045541;28;20974;-48
2023/09/02 07:52:06;;;;;;;0.40;0.20;;;;;;;17.95;100.00;100610.31;5043297;28;20454;-48
2023/09/02 07:54:33;;;;;;;0.40;0.20;;;;;;;17.98;100.00;100613.75;5033001;28;20423;-48
2023/09/02 07:56:59;;;;;;;0.40;0.20;;;;;;;17.82;100.00;100615.53;5015111;28;20463;-48
2023/09/02 07:59:26;;;;;;;0.40;0.20;;;;;;;17.62;100.00;100618.34;5039091;28;20455;-48
2023/09/02 08:01:52;;;;;;;0.40;0.20;;;;;;;18.02;100.00;100611.75;5033843;28;20924;-48
2023/09/02 08:04:19;;;;;;;0.40;0.20;;;;;;;17.92;100.00;100618.56;5034639;28;20992;-48
2023/09/02 08:06:45;;;;;;;0.40;0.20;;;;;;;18.43;100.00;100617.53;5042987;28;21005;-48
2023/09/02 08:09:11;;;;;;;0.40;0.20;;;;;;;18.13;100.00;100627.31;5038929;28;20510;-51
2023/09/02 08:11:38;;;;;;;0.40;0.20;;;;;;;18.43;100.00;100635.50;5041090;28;20471;-50
2023/09/02 08:14:04;;;;;;;0.40;0.20;;;;;;;18.38;100.00;100640.28;5046561;28;20819;-50
2023/09/02 08:16:31;;;;;;;0.40;0.20;;;;;;;18.76;100.00;100635.47;5047796;28;20505;-50
2023/09/02 08:18:57;;;;;;;0.50;0.50;;;;;;;18.55;100.00;100634.84;5042719;28;20467;-50
2023/09/02 08:21:24;;;;;;;0.40;0.20;;;;;;;18.80;100.00;100629.84;5044601;28;20452;-50
2023/09/02 08:23:50;;;;;;;0.40;0.20;;;;;;;18.96;100.00;100629.81;5031561;28;20457;-50
2023/09/02 08:26:17;;;;;;;0.40;0.20;;;;;;;19.66;100.00;100625.66;5047713;28;20474;-51
2023/09/02 08:28:44;;;;;;;0.40;0.20;;;;;;;19.20;100.00;100622.13;5042378;28;20565;-50
2023/09/02 08:31:17;;;;;;;0.40;0.30;;;;;;;19.66;100.00;100624.78;5043942;28;20486;-51
2023/09/02 08:33:44;;;;;;;0.40;0.20;;;;;;;19.68;100.00;100614.78;5049258;28;20448;-50
2023/09/02 08:36:15;;;;;;;0.40;0.20;;;;;;;19.15;100.00;100613.44;5035867;28;20454;-50
2023/09/02 08:38:42;;;;;;;0.40;0.20;;;;;;;19.68;100.00;100614.78;5048071;28;20482;-51
2023/09/02 08:41:13;;;;;;;0.40;0.20;;;;;;;19.72;100.00;100619.88;5048851;28;20537;-51
2023/09/02 08:43:40;;;;;;;0.40;0.20;;;;;;;19.65;100.00;100626.63;5044121;28;20930;-51
2023/09/02 08:46:09;;;;;;;0.40;0.20;;;;;;;20.14;100.00;100623.56;5041962;28;20493;-51
2023/09/02 08:48:40;;;;;;;0.40;0.20;;;;;;;20.53;99.16;100622.03;5046506;28;20450;-51
2023/09/02 08:51:10;;;;;;;0.40;0.20;;;;;;;20.55;99.47;100630.91;5048794;28;20428;-50
2023/09/02 08:53:38;;;;;;;0.40;0.20;;;;;;;20.17;100.00;100630.63;5045120;28;20451;-51
2023/09/02 08:56:07;;;;;;;0.40;0.20;;;;;;;20.58;100.00;100626.19;5038060;28;20950;-51
2023/09/02 08:58:38;;;;;;;0.40;0.20;;;;;;;20.64;99.57;100633.88;5046134;28;20510;-51
2023/09/02 09:01:05;;;;;;;0.40;0.20;;;;;;;20.76;98.94;100634.94;5041591;28;20504;-51
2023/09/02 09:03:34;;;;;;;0.40;0.20;;;;;;;20.23;100.00;100638.34;5042923;28;20422;-50
2023/09/02 09:06:04;;;;;;;0.40;0.20;;;;;;;20.59;98.79;100637.88;5048199;28;20571;-50
2023/09/02 09:08:32;;;;;;;0.40;0.20;;;;;;;20.84;98.24;100632.59;5047730;28;21021;-50
2023/09/02 09:10:59;;;;;;;0.40;0.20;;;;;;;20.82;98.57;100634.50;5048608;28;20921;-50
2023/09/02 09:13:26;;;;;;;0.40;0.20;;;;;;;21.20;98.85;100631.09;5049261;28;20488;-49
2023/09/02 09:15:56;;;;;;;0.40;0.20;;;;;;;20.99;99.42;100634.28;5042138;28;20468;-50
2023/09/02 09:18:23;;;;;;;0.40;0.20;;;;;;;21.75;97.85;100630.06;5041079;28;20503;-51
2023/09/02 09:20:50;;;;;;;0.50;0.23;;;;;;;21.18;97.85;100630.34;5047610;28;20455;-51
2023/09/02 09:23:16;;;;;;;0.50;0.20;;;;;;;21.18;97.76;100628.50;5031598;28;20816;-51
2023/09/02 09:25:44;;;;;;;0.50;0.20;;;;;;;21.61;96.86;100631.03;5041234;28;20497;-51
2023/09/02 09:28:12;;;;;;;0.50;0.20;;;;;;;22.10;95.45;100639.34;5041257;28;20446;-50
2023/09/02 09:30:39;;;;;;;0.40;0.20;;;;;;;22.00;95.66;100632.78;5046453;28;20447;-51
2023/09/02 09:33:06;;;;;;;0.43;0.20;;;;;;;22.24;95.15;100632.06;5047798;28;20941;-50
2023/09/02 09:35:34;;;;;;;0.50;0.20;;;;;;;22.29;93.26;100638.88;5033380;28;20480;-51
2023/09/02 09:38:01;;;;;;;0.50;0.20;;;;;;;22.38;92.30;100643.66;5048114;28;20554;-50
2023/09/02 09:40:29;;;;;;;0.50;0.20;;;;;;;22.31;93.85;100647.75;5043222;28;20457;-50
2023/09/02 09:42:56;;;;;;;0.40;0.20;;;;;;;22.11;93.47;100635.66;5040883;28;20544;-50
2023/09/02 09:45:22;;;;;;;0.50;0.20;;;;;;;22.28;92.14;100639.84;5045107;28;20493;-49
2023/09/02 09:47:49;;;;;;;0.50;0.20;;;;;;;21.94;91.78;100635.09;5047553;28;20445;-50
2023/09/02 09:50:16;;;;;;;0.40;0.20;;;;;;;22.04;91.78;100631.59;5043541;28;20473;-50
2023/09/02 09:53:04;;;;;;;0.50;0.30;;;;;;;22.12;92.61;100639.22;5040809;28;20430;-50
2023/09/02 09:55:32;;;;;;;0.47;0.20;;;;;;;22.03;92.34;100639.84;5041898;28;20527;-49
2023/09/02 09:57:59;;;;;;;0.40;0.20;;;;;;;22.14;92.75;100638.13;5040132;28;20505;-49
2023/09/02 10:00:27;;;;;;;0.40;0.20;;;;;;;22.45;92.81;100638.63;5041771;28;20458;-49
2023/09/02 10:02:56;;;;;;;0.40;0.20;;;;;;;22.68;89.58;100645.97;5047611;28;20471;-50
2023/09/02 10:05:28;;;;;;;0.40;0.20;;;;;;;22.76;89.95;100650.84;5047596;28;20482;-49
2023/09/02 10:08:03;;;;;;;0.50;0.30;;;;;;;22.44;89.49;100643.19;5041600;28;20479;-50
2023/09/02 10:10:37;;;;;;;0.50;0.30;;;;;;;22.55;88.95;100639.72;5040283;28;20916;-49
2023/09/02 10:13:05;;;;;;;0.40;0.20;;;;;;;22.50;88.86;100643.75;5043820;28;20449;-49
2023/09/02 10:15:32;;;;;;;0.40;0.20;;;;;;;22.54;89.78;100643.41;5047283;28;20534;-49
2023/09/02 10:18:03;;;;;;;0.60;0.60;;;;;;;22.96;89.49;100643.97;5044732;28;20520;-51
2023/09/02 10:20:32;;;;;;;0.50;0.50;;;;;;;23.11;86.15;100644.66;5040577;28;20497;-51
2023/09/02 10:23:09;;;;;;;0.50;0.27;;;;;;;23.20;87.61;100638.53;5041859;28;20455;-51
2023/09/02 10:26:05;;;;;;;0.50;0.20;;;;;;;23.30;86.47;100640.44;5047809;28;20495;-53
2023/09/02 10:28:39;;;;;;;0.50;0.30;;;;;;;23.55;85.50;100639.41;5046990;28;20551;-50
2023/09/02 10:31:16;;;;;;;0.50;0.20;;;;;;;23.61;86.37;100641.72;5045409;28;20512;-50
2023/09/02 10:33:49;;;;;;;0.50;0.20;;;;;;;23.70;85.20;100644.69;5027002;28;20882;-51
2023/09/02 10:36:21;;;;;;;0.50;0.20;;;;;;;23.45;85.12;100641.13;5036114;28;20518;-51
2023/09/02 10:38:49;;;;;;;0.50;0.30;;;;;;;23.33;86.29;100639.34;5045018;28;20503;-50
2023/09/02 10:41:17;;;;;;;0.43;0.30;;;;;;;23.96;84.31;100635.34;5046880;28;20453;-53
2023/09/02 10:43:46;;;;;;;0.50;0.30;;;;;;;23.68;83.34;100641.22;5042407;28;20958;-50
2023/09/02 10:46:12;;;;;;;0.50;0.20;;;;;;;23.69;83.89;100648.38;5039535;28;20574;-50
2023/09/02 10:48:43;;;;;;;0.50;0.30;;;;;;;23.75;84.80;100647.91;5044060;28;20486;-51
2023/09/02 10:51:10;;;;;;;0.50;0.23;;;;;;;23.83;84.13;100648.16;5046923;28;20809;-51
2023/09/02 10:53:50;;;;;;;0.43;0.20;;;;;;;23.84;83.60;100639.03;5043551;28;20932;-50
2023/09/02 10:56:27;;;;;;;0.40;0.20;;;;;;;23.67;83.29;100642.19;5033529;28;20952;-49
2023/09/02 10:58:54;;;;;;;0.50;0.20;;;;;;;24.03;83.59;100633.91;5046421;28;20466;-49
2023/09/02 11:01:20;;;;;;;0.50;0.20;;;;;;;24.36;83.14;100633.06;5040581;28;20538;-50
2023/09/02 11:03:49;;;;;;;0.40;0.20;;;;;;;23.82;84.15;100635.56;5039798;28;20816;-51
2023/09/02 11:06:16;;;;;;;0.50;0.20;;;;;;;23.78;83.27;100626.81;5045617;28;20498;-51
2023/09/02 11:08:53;;;;;;;0.50;0.20;;;;;;;23.80;82.86;100619.41;5045622;28;20493;-51
2023/09/02 11:11:20;;;;;;;0.50;0.20;;;;;;;24.26;83.41;100617.59;5041804;28;20871;-51
2023/09/02 11:14:16;;;;;;;0.50;0.30;;;;;;;23.85;84.04;100616.34;5039499;28;20502;-50
2023/09/02 11:16:43;;;;;;;0.40;0.20;;;;;;;24.06;84.91;100614.63;5034592;28;20455;-51
2023/09/02 11:19:11;;;;;;;0.50;0.30;;;;;;;23.84;84.31;100620.88;5039553;28;20467;-51
2023/09/02 11:21:46;;;;;;;0.50;0.27;;;;;;;23.89;83.94;100612.41;5039363;28;20451;-51
2023/09/02 11:24:17;;;;;;;0.40;0.20;;;;;;;24.43;82.69;100620.72;5026968;28;20451;-51